sensor_id;sensor_type;location;lat;lon;timestamp;temperature;humidity
27954;DHT22;15290;48.148;17.106;2022-12-15T00:00:59;1.60;99.90
27954;DHT22;15290;48.148;17.106;2022-12-15T00:03:44;1.60;99.90
27954;DHT22;15290;48.148;17.106;2022-12-15T00:06:29;1.60;99.90
27954;DHT22;15290;48.148;17.106;2022-12-15T00:09:13;1.60;99.90
27954;DHT22;15290;48.148;17.106;2022-12-15T00:11:58;1.60;99.90
27954;DHT22;15290;48.148;17.106;2022-12-15T00:14:42;1.50;99.90
27954;DHT22;15290;48.148;17.106;2022-12-15T00:17:26;1.60;99.90
27954;DHT22;15290;48.148;17.106;2022-12-15T00:20:10;1.60;99.90
27954;DHT22;15290;48.148;17.106;2022-12-15T00:22:55;1.60;99.90
27954;DHT22;15290;48.148;17.106;2022-12-15T00:25:39;1.60;99.90
27954;DHT22;15290;48.148;17.106;2022-12-15T00:28:23;1.60;99.90
27954;DHT22;15290;48.148;17.106;2022-12-15T00:31:07;1.60;99.90
27954;DHT22;15290;48.148;17.106;2022-12-15T00:33:52;1.60;99.90
27954;DHT22;15290;48.148;17.106;2022-12-15T00:36:36;1.70;99.90
27954;DHT22;15290;48.148;17.106;2022-12-15T00:39:20;1.70;99.90
27954;DHT22;15290;48.148;17.106;2022-12-15T00:41:46;1.70;99.90
27954;DHT22;15290;48.148;17.106;2022-12-15T00:44:11;1.70;99.90
27954;DHT22;15290;48.148;17.106;2022-12-15T00:46:37;1.70;99.90
27954;DHT22;15290;48.148;17.106;2022-12-15T00:49:26;1.70;99.90
27954;DHT22;15290;48.148;17.106;2022-12-15T00:52:11;1.70;99.90
27954;DHT22;15290;48.148;17.106;2022-12-15T00:54:55;1.70;99.90
27954;DHT22;15290;48.148;17.106;2022-12-15T00:57:40;1.70;99.90
27954;DHT22;15290;48.148;17.106;2022-12-15T01:00:24;1.70;99.90
27954;DHT22;15290;48.148;17.106;2022-12-15T01:03:14;1.70;99.90
27954;DHT22;15290;48.148;17.106;2022-12-15T01:05:58;1.70;99.90
27954;DHT22;15290;48.148;17.106;2022-12-15T01:08:43;1.70;99.90
27954;DHT22;15290;48.148;17.106;2022-12-15T01:11:27;1.70;99.90
27954;DHT22;15290;48.148;17.106;2022-12-15T01:14:12;1.70;99.90
27954;DHT22;15290;48.148;17.106;2022-12-15T01:16:57;1.70;99.90
27954;DHT22;15290;48.148;17.106;2022-12-15T01:19:41;1.60;99.90
27954;DHT22;15290;48.148;17.106;2022-12-15T01:22:26;1.70;99.90
27954;DHT22;15290;48.148;17.106;2022-12-15T01:24:51;1.70;99.90
27954;DHT22;15290;48.148;17.106;2022-12-15T01:27:18;1.60;99.90
27954;DHT22;15290;48.148;17.106;2022-12-15T01:29:44;1.60;99.90
27954;DHT22;15290;48.148;17.106;2022-12-15T01:32:11;1.60;99.90
27954;DHT22;15290;48.148;17.106;2022-12-15T01:34:37;1.60;99.90
27954;DHT22;15290;48.148;17.106;2022-12-15T01:37:03;1.50;99.90
27954;DHT22;15290;48.148;17.106;2022-12-15T01:39:29;1.50;99.90
27954;DHT22;15290;48.148;17.106;2022-12-15T01:42:14;1.60;99.90
27954;DHT22;15290;48.148;17.106;2022-12-15T01:44:40;1.50;99.90
27954;DHT22;15290;48.148;17.106;2022-12-15T01:47:10;1.50;99.90
27954;DHT22;15290;48.148;17.106;2022-12-15T01:49:37;1.50;99.90
27954;DHT22;15290;48.148;17.106;2022-12-15T01:52:05;1.50;99.90
27954;DHT22;15290;48.148;17.106;2022-12-15T01:54:54;1.50;99.90
27954;DHT22;15290;48.148;17.106;2022-12-15T01:57:26;1.50;99.90
27954;DHT22;15290;48.148;17.106;2022-12-15T01:59:57;1.50;99.90
27954;DHT22;15290;48.148;17.106;2022-12-15T02:02:26;1.50;99.90
27954;DHT22;15290;48.148;17.106;2022-12-15T02:04:54;1.50;99.90
27954;DHT22;15290;48.148;17.106;2022-12-15T02:07:23;1.50;99.90
27954;DHT22;15290;48.148;17.106;2022-12-15T02:09:50;1.50;99.90
27954;DHT22;15290;48.148;17.106;2022-12-15T02:12:19;1.50;99.90
27954;DHT22;15290;48.148;17.106;2022-12-15T02:17:56;1.50;99.90
27954;DHT22;15290;48.148;17.106;2022-12-15T02:26:57;1.60;99.90
27954;DHT22;15290;48.148;17.106;2022-12-15T02:30:14;1.60;99.90
27954;DHT22;15290;48.148;17.106;2022-12-15T02:33:03;1.50;99.90
27954;DHT22;15290;48.148;17.106;2022-12-15T02:35:46;1.50;99.90
27954;DHT22;15290;48.148;17.106;2022-12-15T02:38:12;1.50;99.90
27954;DHT22;15290;48.148;17.106;2022-12-15T02:40:39;1.50;99.90
27954;DHT22;15290;48.148;17.106;2022-12-15T02:43:05;1.50;99.90
27954;DHT22;15290;48.148;17.106;2022-12-15T02:45:55;1.60;99.90
27954;DHT22;15290;48.148;17.106;2022-12-15T02:48:47;1.50;99.90
27954;DHT22;15290;48.148;17.106;2022-12-15T02:51:23;1.50;99.90
27954;DHT22;15290;48.148;17.106;2022-12-15T02:54:04;1.50;99.90
27954;DHT22;15290;48.148;17.106;2022-12-15T02:56:43;1.50;99.90
27954;DHT22;15290;48.148;17.106;2022-12-15T02:59:11;1.50;99.90
27954;DHT22;15290;48.148;17.106;2022-12-15T03:02:02;1.50;99.90
27954;DHT22;15290;48.148;17.106;2022-12-15T03:04:30;1.50;99.90
27954;DHT22;15290;48.148;17.106;2022-12-15T03:07:02;1.50;99.90
27954;DHT22;15290;48.148;17.106;2022-12-15T03:09:29;1.50;99.90
27954;DHT22;15290;48.148;17.106;2022-12-15T03:11:55;1.60;99.90
27954;DHT22;15290;48.148;17.106;2022-12-15T03:14:21;1.60;99.90
27954;DHT22;15290;48.148;17.106;2022-12-15T03:16:49;1.60;99.90
27954;DHT22;15290;48.148;17.106;2022-12-15T03:19:15;1.60;99.90
27954;DHT22;15290;48.148;17.106;2022-12-15T03:21:41;1.60;99.90
27954;DHT22;15290;48.148;17.106;2022-12-15T03:24:06;1.70;99.90
27954;DHT22;15290;48.148;17.106;2022-12-15T03:26:32;1.60;99.90
27954;DHT22;15290;48.148;17.106;2022-12-15T03:28:58;1.60;99.90
27954;DHT22;15290;48.148;17.106;2022-12-15T03:31:23;1.60;99.90
27954;DHT22;15290;48.148;17.106;2022-12-15T03:33:49;1.60;99.90
27954;DHT22;15290;48.148;17.106;2022-12-15T03:36:15;1.50;99.90
27954;DHT22;15290;48.148;17.106;2022-12-15T03:38:40;1.60;99.90
27954;DHT22;15290;48.148;17.106;2022-12-15T03:41:06;1.60;99.90
27954;DHT22;15290;48.148;17.106;2022-12-15T03:43:31;1.60;99.90
27954;DHT22;15290;48.148;17.106;2022-12-15T03:45:57;1.60;99.90
27954;DHT22;15290;48.148;17.106;2022-12-15T03:48:23;1.60;99.90
27954;DHT22;15290;48.148;17.106;2022-12-15T03:50:48;1.60;99.90
27954;DHT22;15290;48.148;17.106;2022-12-15T03:53:14;1.60;99.90
27954;DHT22;15290;48.148;17.106;2022-12-15T03:55:40;1.60;99.90
27954;DHT22;15290;48.148;17.106;2022-12-15T03:58:06;1.60;99.90
27954;DHT22;15290;48.148;17.106;2022-12-15T04:00:31;1.70;99.90
27954;DHT22;15290;48.148;17.106;2022-12-15T04:02:57;1.70;99.90
27954;DHT22;15290;48.148;17.106;2022-12-15T04:05:26;1.70;99.90
27954;DHT22;15290;48.148;17.106;2022-12-15T04:07:53;1.70;99.90
27954;DHT22;15290;48.148;17.106;2022-12-15T04:10:18;1.70;99.90
27954;DHT22;15290;48.148;17.106;2022-12-15T04:12:44;1.60;99.90
27954;DHT22;15290;48.148;17.106;2022-12-15T04:15:10;1.70;99.90
27954;DHT22;15290;48.148;17.106;2022-12-15T04:17:37;1.70;99.90
27954;DHT22;15290;48.148;17.106;2022-12-15T04:20:04;1.70;99.90
27954;DHT22;15290;48.148;17.106;2022-12-15T04:22:41;1.70;99.90
27954;DHT22;15290;48.148;17.106;2022-12-15T04:25:13;1.70;99.90
27954;DHT22;15290;48.148;17.106;2022-12-15T04:27:58;1.70;99.90
27954;DHT22;15290;48.148;17.106;2022-12-15T04:30:58;1.70;99.90
27954;DHT22;15290;48.148;17.106;2022-12-15T04:33:48;1.80;99.90
27954;DHT22;15290;48.148;17.106;2022-12-15T04:36:33;1.80;99.90
27954;DHT22;15290;48.148;17.106;2022-12-15T04:39:19;1.70;99.90
27954;DHT22;15290;48.148;17.106;2022-12-15T04:42:03;1.70;99.90
27954;DHT22;15290;48.148;17.106;2022-12-15T04:44:48;1.70;99.90
27954;DHT22;15290;48.148;17.106;2022-12-15T04:47:35;1.70;99.90
27954;DHT22;15290;48.148;17.106;2022-12-15T04:50:19;1.70;99.90
27954;DHT22;15290;48.148;17.106;2022-12-15T04:53:12;1.70;99.90
27954;DHT22;15290;48.148;17.106;2022-12-15T04:55:57;1.80;99.90
27954;DHT22;15290;48.148;17.106;2022-12-15T04:58:41;1.80;99.90
27954;DHT22;15290;48.148;17.106;2022-12-15T05:01:26;1.80;99.90
27954;DHT22;15290;48.148;17.106;2022-12-15T05:04:11;1.80;99.90
27954;DHT22;15290;48.148;17.106;2022-12-15T05:06:55;1.80;99.90
27954;DHT22;15290;48.148;17.106;2022-12-15T05:09:39;1.80;99.90
27954;DHT22;15290;48.148;17.106;2022-12-15T05:12:23;1.80;99.90
27954;DHT22;15290;48.148;17.106;2022-12-15T05:15:07;1.70;99.90
27954;DHT22;15290;48.148;17.106;2022-12-15T05:17:52;1.70;99.90
27954;DHT22;15290;48.148;17.106;2022-12-15T05:20:37;1.70;99.90
27954;DHT22;15290;48.148;17.106;2022-12-15T05:23:21;1.70;99.90
27954;DHT22;15290;48.148;17.106;2022-12-15T05:26:05;1.70;99.90
27954;DHT22;15290;48.148;17.106;2022-12-15T05:28:49;1.70;99.90
27954;DHT22;15290;48.148;17.106;2022-12-15T05:31:33;1.70;99.90
27954;DHT22;15290;48.148;17.106;2022-12-15T05:34:12;1.60;99.90
27954;DHT22;15290;48.148;17.106;2022-12-15T05:36:38;1.50;99.90
27954;DHT22;15290;48.148;17.106;2022-12-15T05:39:03;1.60;99.90
27954;DHT22;15290;48.148;17.106;2022-12-15T05:41:29;1.60;99.90
27954;DHT22;15290;48.148;17.106;2022-12-15T05:43:55;1.60;99.90
27954;DHT22;15290;48.148;17.106;2022-12-15T05:46:21;1.60;99.90
27954;DHT22;15290;48.148;17.106;2022-12-15T05:48:46;1.60;99.90
27954;DHT22;15290;48.148;17.106;2022-12-15T05:51:12;1.60;99.90
27954;DHT22;15290;48.148;17.106;2022-12-15T05:53:40;1.60;99.90
27954;DHT22;15290;48.148;17.106;2022-12-15T05:56:08;1.60;99.90
27954;DHT22;15290;48.148;17.106;2022-12-15T05:58:35;1.60;99.90
27954;DHT22;15290;48.148;17.106;2022-12-15T06:01:06;1.60;99.90
27954;DHT22;15290;48.148;17.106;2022-12-15T06:03:33;1.70;99.90
27954;DHT22;15290;48.148;17.106;2022-12-15T06:05:59;1.70;99.90
27954;DHT22;15290;48.148;17.106;2022-12-15T06:08:29;1.70;99.90
27954;DHT22;15290;48.148;17.106;2022-12-15T06:10:55;1.70;99.90
27954;DHT22;15290;48.148;17.106;2022-12-15T06:13:25;1.60;99.90
27954;DHT22;15290;48.148;17.106;2022-12-15T06:16:02;1.70;99.90
27954;DHT22;15290;48.148;17.106;2022-12-15T06:18:30;1.60;99.90
27954;DHT22;15290;48.148;17.106;2022-12-15T06:21:14;1.70;99.90
27954;DHT22;15290;48.148;17.106;2022-12-15T06:23:40;1.70;99.90
27954;DHT22;15290;48.148;17.106;2022-12-15T06:26:12;1.70;99.90
27954;DHT22;15290;48.148;17.106;2022-12-15T06:28:39;1.80;99.90
27954;DHT22;15290;48.148;17.106;2022-12-15T06:31:09;1.70;99.90
27954;DHT22;15290;48.148;17.106;2022-12-15T06:33:36;1.70;99.90
27954;DHT22;15290;48.148;17.106;2022-12-15T06:36:08;1.70;99.90
27954;DHT22;15290;48.148;17.106;2022-12-15T06:38:35;1.70;99.90
27954;DHT22;15290;48.148;17.106;2022-12-15T06:41:03;1.70;99.90
27954;DHT22;15290;48.148;17.106;2022-12-15T06:43:29;1.70;99.90
27954;DHT22;15290;48.148;17.106;2022-12-15T06:45:55;1.70;99.90
27954;DHT22;15290;48.148;17.106;2022-12-15T06:48:22;1.60;99.90
27954;DHT22;15290;48.148;17.106;2022-12-15T06:50:49;1.70;99.90
27954;DHT22;15290;48.148;17.106;2022-12-15T06:53:16;1.70;99.90
27954;DHT22;15290;48.148;17.106;2022-12-15T06:55:43;1.70;99.90
27954;DHT22;15290;48.148;17.106;2022-12-15T06:58:10;1.80;99.90
27954;DHT22;15290;48.148;17.106;2022-12-15T07:00:40;1.70;99.90
27954;DHT22;15290;48.148;17.106;2022-12-15T07:03:11;1.70;99.90
27954;DHT22;15290;48.148;17.106;2022-12-15T07:05:37;1.60;99.90
27954;DHT22;15290;48.148;17.106;2022-12-15T07:08:03;1.70;99.90
27954;DHT22;15290;48.148;17.106;2022-12-15T07:10:29;1.70;99.90
27954;DHT22;15290;48.148;17.106;2022-12-15T07:12:57;1.70;99.90
27954;DHT22;15290;48.148;17.106;2022-12-15T07:15:23;1.80;99.90
27954;DHT22;15290;48.148;17.106;2022-12-15T07:17:49;1.90;99.90
27954;DHT22;15290;48.148;17.106;2022-12-15T07:20:15;1.80;99.90
27954;DHT22;15290;48.148;17.106;2022-12-15T07:22:41;1.80;99.90
27954;DHT22;15290;48.148;17.106;2022-12-15T07:25:07;1.80;99.90
27954;DHT22;15290;48.148;17.106;2022-12-15T07:27:33;1.90;99.90
27954;DHT22;15290;48.148;17.106;2022-12-15T07:30:02;1.90;99.90
27954;DHT22;15290;48.148;17.106;2022-12-15T07:32:28;1.90;99.90
27954;DHT22;15290;48.148;17.106;2022-12-15T07:34:58;1.80;99.90
27954;DHT22;15290;48.148;17.106;2022-12-15T07:37:23;1.80;99.90
27954;DHT22;15290;48.148;17.106;2022-12-15T07:39:49;1.90;99.90
27954;DHT22;15290;48.148;17.106;2022-12-15T07:42:16;1.90;99.90
27954;DHT22;15290;48.148;17.106;2022-12-15T07:44:41;2.00;99.90
27954;DHT22;15290;48.148;17.106;2022-12-15T07:47:08;2.10;99.90
27954;DHT22;15290;48.148;17.106;2022-12-15T07:49:34;2.10;99.90
27954;DHT22;15290;48.148;17.106;2022-12-15T07:52:00;2.10;99.90
27954;DHT22;15290;48.148;17.106;2022-12-15T07:54:26;2.10;99.90
27954;DHT22;15290;48.148;17.106;2022-12-15T07:56:51;2.10;99.90
27954;DHT22;15290;48.148;17.106;2022-12-15T07:59:18;2.20;99.90
27954;DHT22;15290;48.148;17.106;2022-12-15T08:01:44;2.20;99.90
27954;DHT22;15290;48.148;17.106;2022-12-15T08:04:10;2.20;99.90
27954;DHT22;15290;48.148;17.106;2022-12-15T08:06:36;2.30;99.90
27954;DHT22;15290;48.148;17.106;2022-12-15T08:09:02;2.30;99.90
27954;DHT22;15290;48.148;17.106;2022-12-15T08:11:28;2.30;99.90
27954;DHT22;15290;48.148;17.106;2022-12-15T08:13:53;2.40;99.90
27954;DHT22;15290;48.148;17.106;2022-12-15T08:16:19;2.40;99.90
27954;DHT22;15290;48.148;17.106;2022-12-15T08:18:46;2.40;99.90
27954;DHT22;15290;48.148;17.106;2022-12-15T08:21:13;2.40;99.90
27954;DHT22;15290;48.148;17.106;2022-12-15T08:23:39;2.50;99.90
27954;DHT22;15290;48.148;17.106;2022-12-15T08:26:11;2.40;99.90
27954;DHT22;15290;48.148;17.106;2022-12-15T08:28:38;2.40;99.90
27954;DHT22;15290;48.148;17.106;2022-12-15T08:31:06;2.50;99.90
27954;DHT22;15290;48.148;17.106;2022-12-15T08:33:34;2.60;99.90
27954;DHT22;15290;48.148;17.106;2022-12-15T08:36:02;2.70;99.90
27954;DHT22;15290;48.148;17.106;2022-12-15T08:38:30;2.80;99.90
27954;DHT22;15290;48.148;17.106;2022-12-15T08:40:56;2.80;99.90
27954;DHT22;15290;48.148;17.106;2022-12-15T08:43:22;2.80;99.90
27954;DHT22;15290;48.148;17.106;2022-12-15T08:45:56;2.80;99.90
27954;DHT22;15290;48.148;17.106;2022-12-15T08:48:24;2.90;99.90
27954;DHT22;15290;48.148;17.106;2022-12-15T08:50:50;3.10;99.90
27954;DHT22;15290;48.148;17.106;2022-12-15T08:53:15;3.00;99.90
27954;DHT22;15290;48.148;17.106;2022-12-15T08:55:41;2.80;99.90
27954;DHT22;15290;48.148;17.106;2022-12-15T08:58:07;2.70;99.90
27954;DHT22;15290;48.148;17.106;2022-12-15T09:00:33;2.60;99.90
27954;DHT22;15290;48.148;17.106;2022-12-15T09:02:59;2.60;99.90
27954;DHT22;15290;48.148;17.106;2022-12-15T09:05:25;2.70;99.90
27954;DHT22;15290;48.148;17.106;2022-12-15T09:07:57;2.80;99.90
27954;DHT22;15290;48.148;17.106;2022-12-15T09:10:24;2.90;99.90
27954;DHT22;15290;48.148;17.106;2022-12-15T09:12:49;3.00;99.90
27954;DHT22;15290;48.148;17.106;2022-12-15T09:15:16;3.00;99.90
27954;DHT22;15290;48.148;17.106;2022-12-15T09:17:44;3.10;99.90
27954;DHT22;15290;48.148;17.106;2022-12-15T09:20:12;3.40;99.90
27954;DHT22;15290;48.148;17.106;2022-12-15T09:22:40;3.50;99.90
27954;DHT22;15290;48.148;17.106;2022-12-15T09:25:06;3.60;99.90
27954;DHT22;15290;48.148;17.106;2022-12-15T09:27:32;3.60;99.90
27954;DHT22;15290;48.148;17.106;2022-12-15T09:29:59;3.60;99.90
27954;DHT22;15290;48.148;17.106;2022-12-15T09:32:25;3.50;99.90
27954;DHT22;15290;48.148;17.106;2022-12-15T09:34:51;3.30;99.90
27954;DHT22;15290;48.148;17.106;2022-12-15T09:37:18;3.20;99.90
27954;DHT22;15290;48.148;17.106;2022-12-15T09:39:44;3.30;99.90
27954;DHT22;15290;48.148;17.106;2022-12-15T09:42:29;3.40;99.90
27954;DHT22;15290;48.148;17.106;2022-12-15T09:45:13;3.40;99.90
27954;DHT22;15290;48.148;17.106;2022-12-15T09:47:56;3.40;99.90
27954;DHT22;15290;48.148;17.106;2022-12-15T09:50:52;3.50;99.90
27954;DHT22;15290;48.148;17.106;2022-12-15T09:53:23;3.50;99.90
27954;DHT22;15290;48.148;17.106;2022-12-15T09:55:55;3.50;99.90
27954;DHT22;15290;48.148;17.106;2022-12-15T09:58:38;3.60;99.90
27954;DHT22;15290;48.148;17.106;2022-12-15T10:04:08;3.60;99.90
27954;DHT22;15290;48.148;17.106;2022-12-15T10:06:44;3.60;99.90
27954;DHT22;15290;48.148;17.106;2022-12-15T10:09:26;3.50;99.90
27954;DHT22;15290;48.148;17.106;2022-12-15T10:14:45;3.50;99.90
27954;DHT22;15290;48.148;17.106;2022-12-15T10:17:43;3.40;99.90
27954;DHT22;15290;48.148;17.106;2022-12-15T10:20:21;3.40;99.90
27954;DHT22;15290;48.148;17.106;2022-12-15T10:22:47;3.40;99.90
27954;DHT22;15290;48.148;17.106;2022-12-15T10:30:24;3.50;99.90
27954;DHT22;15290;48.148;17.106;2022-12-15T10:32:56;3.60;99.90
27954;DHT22;15290;48.148;17.106;2022-12-15T10:35:31;3.60;99.90
27954;DHT22;15290;48.148;17.106;2022-12-15T10:38:02;3.70;99.90
27954;DHT22;15290;48.148;17.106;2022-12-15T10:41:13;3.70;99.90
27954;DHT22;15290;48.148;17.106;2022-12-15T10:43:42;3.70;99.90
27954;DHT22;15290;48.148;17.106;2022-12-15T10:46:19;3.80;99.90
27954;DHT22;15290;48.148;17.106;2022-12-15T10:51:25;3.80;99.90
27954;DHT22;15290;48.148;17.106;2022-12-15T10:56:26;4.00;99.90
27954;DHT22;15290;48.148;17.106;2022-12-15T10:58:58;4.00;99.90
27954;DHT22;15290;48.148;17.106;2022-12-15T11:01:27;4.00;99.90
27954;DHT22;15290;48.148;17.106;2022-12-15T11:03:53;4.10;99.90
27954;DHT22;15290;48.148;17.106;2022-12-15T11:06:31;4.00;99.90
27954;DHT22;15290;48.148;17.106;2022-12-15T11:09:23;3.90;99.90
27954;DHT22;15290;48.148;17.106;2022-12-15T11:11:50;3.80;99.90
27954;DHT22;15290;48.148;17.106;2022-12-15T11:14:48;3.80;99.90
27954;DHT22;15290;48.148;17.106;2022-12-15T11:17:20;3.80;99.90
27954;DHT22;15290;48.148;17.106;2022-12-15T11:19:54;3.80;99.90
27954;DHT22;15290;48.148;17.106;2022-12-15T11:28:27;3.80;99.90
27954;DHT22;15290;48.148;17.106;2022-12-15T11:31:09;3.70;99.90
27954;DHT22;15290;48.148;17.106;2022-12-15T11:33:38;3.70;99.90
27954;DHT22;15290;48.148;17.106;2022-12-15T11:36:12;3.60;99.90
27954;DHT22;15290;48.148;17.106;2022-12-15T11:39:01;3.60;99.90
27954;DHT22;15290;48.148;17.106;2022-12-15T11:47:34;3.50;99.90
27954;DHT22;15290;48.148;17.106;2022-12-15T11:50:23;3.50;99.90
27954;DHT22;15290;48.148;17.106;2022-12-15T11:53:07;3.50;99.90
27954;DHT22;15290;48.148;17.106;2022-12-15T11:55:46;3.50;99.90
27954;DHT22;15290;48.148;17.106;2022-12-15T12:01:04;3.40;99.90
27954;DHT22;15290;48.148;17.106;2022-12-15T12:04:06;3.40;99.90
27954;DHT22;15290;48.148;17.106;2022-12-15T12:12:48;3.40;99.90
27954;DHT22;15290;48.148;17.106;2022-12-15T12:15:45;3.50;99.90
27954;DHT22;15290;48.148;17.106;2022-12-15T12:18:26;3.50;99.90
27954;DHT22;15290;48.148;17.106;2022-12-15T12:21:09;3.50;99.90
27954;DHT22;15290;48.148;17.106;2022-12-15T12:26:42;3.50;99.90
27954;DHT22;15290;48.148;17.106;2022-12-15T12:29:24;3.40;99.90
27954;DHT22;15290;48.148;17.106;2022-12-15T12:31:58;3.50;99.90
27954;DHT22;15290;48.148;17.106;2022-12-15T12:37:22;3.40;99.90
27954;DHT22;15290;48.148;17.106;2022-12-15T12:39:51;3.40;99.90
27954;DHT22;15290;48.148;17.106;2022-12-15T12:42:27;3.40;99.90
27954;DHT22;15290;48.148;17.106;2022-12-15T12:44:55;3.40;99.90
27954;DHT22;15290;48.148;17.106;2022-12-15T12:47:28;3.40;99.90
27954;DHT22;15290;48.148;17.106;2022-12-15T12:50:05;3.40;99.90
27954;DHT22;15290;48.148;17.106;2022-12-15T12:52:37;3.30;99.90
27954;DHT22;15290;48.148;17.106;2022-12-15T12:57:41;3.30;99.90
27954;DHT22;15290;48.148;17.106;2022-12-15T13:00:25;3.30;99.90
27954;DHT22;15290;48.148;17.106;2022-12-15T13:03:13;3.20;99.90
27954;DHT22;15290;48.148;17.106;2022-12-15T13:05:42;3.20;99.90
27954;DHT22;15290;48.148;17.106;2022-12-15T13:10:40;3.30;99.90
27954;DHT22;15290;48.148;17.106;2022-12-15T13:16:01;3.30;99.90
27954;DHT22;15290;48.148;17.106;2022-12-15T13:18:54;3.30;99.90
27954;DHT22;15290;48.148;17.106;2022-12-15T13:24:34;3.30;99.90
27954;DHT22;15290;48.148;17.106;2022-12-15T13:29:29;3.30;99.90
27954;DHT22;15290;48.148;17.106;2022-12-15T13:31:55;3.30;99.90
27954;DHT22;15290;48.148;17.106;2022-12-15T13:34:27;3.30;99.90
27954;DHT22;15290;48.148;17.106;2022-12-15T13:36:55;3.30;99.90
27954;DHT22;15290;48.148;17.106;2022-12-15T13:47:22;3.30;99.90
27954;DHT22;15290;48.148;17.106;2022-12-15T13:49:55;3.30;99.90
27954;DHT22;15290;48.148;17.106;2022-12-15T13:55:05;3.30;99.90
27954;DHT22;15290;48.148;17.106;2022-12-15T13:57:46;3.30;99.90
27954;DHT22;15290;48.148;17.106;2022-12-15T14:00:14;3.40;99.90
27954;DHT22;15290;48.148;17.106;2022-12-15T14:02:44;3.40;99.90
27954;DHT22;15290;48.148;17.106;2022-12-15T14:05:17;3.30;99.90
27954;DHT22;15290;48.148;17.106;2022-12-15T14:10:41;3.30;99.90
27954;DHT22;15290;48.148;17.106;2022-12-15T14:15:54;3.30;99.90
27954;DHT22;15290;48.148;17.106;2022-12-15T14:18:26;3.20;99.90
27954;DHT22;15290;48.148;17.106;2022-12-15T14:20:54;3.20;99.90
27954;DHT22;15290;48.148;17.106;2022-12-15T14:23:24;3.20;99.90
27954;DHT22;15290;48.148;17.106;2022-12-15T14:25:53;3.20;99.90
27954;DHT22;15290;48.148;17.106;2022-12-15T14:28:30;3.10;99.90
27954;DHT22;15290;48.148;17.106;2022-12-15T14:31:19;3.10;99.90
27954;DHT22;15290;48.148;17.106;2022-12-15T14:33:57;3.10;99.90
27954;DHT22;15290;48.148;17.106;2022-12-15T14:36:25;3.10;99.90
27954;DHT22;15290;48.148;17.106;2022-12-15T14:38:57;3.10;99.90
27954;DHT22;15290;48.148;17.106;2022-12-15T14:43:56;3.10;99.90
27954;DHT22;15290;48.148;17.106;2022-12-15T14:46:25;3.00;99.90
27954;DHT22;15290;48.148;17.106;2022-12-15T14:48:55;3.00;99.90
27954;DHT22;15290;48.148;17.106;2022-12-15T14:51:23;3.00;99.90
27954;DHT22;15290;48.148;17.106;2022-12-15T14:53:52;3.00;99.90
27954;DHT22;15290;48.148;17.106;2022-12-15T14:58:59;3.00;99.90
27954;DHT22;15290;48.148;17.106;2022-12-15T15:04:29;3.00;99.90
27954;DHT22;15290;48.148;17.106;2022-12-15T15:06:58;3.00;99.90
27954;DHT22;15290;48.148;17.106;2022-12-15T15:09:26;2.90;99.90
27954;DHT22;15290;48.148;17.106;2022-12-15T15:14:58;2.90;99.90
27954;DHT22;15290;48.148;17.106;2022-12-15T15:17:43;2.90;99.90
27954;DHT22;15290;48.148;17.106;2022-12-15T15:20:18;2.90;99.90
27954;DHT22;15290;48.148;17.106;2022-12-15T15:22:46;2.90;99.90
27954;DHT22;15290;48.148;17.106;2022-12-15T15:30:49;2.80;99.90
27954;DHT22;15290;48.148;17.106;2022-12-15T15:33:16;2.80;99.90
27954;DHT22;15290;48.148;17.106;2022-12-15T15:35:43;2.80;99.90
27954;DHT22;15290;48.148;17.106;2022-12-15T15:38:24;2.80;99.90
27954;DHT22;15290;48.148;17.106;2022-12-15T15:41:00;2.80;99.90
27954;DHT22;15290;48.148;17.106;2022-12-15T15:43:27;2.80;99.90
27954;DHT22;15290;48.148;17.106;2022-12-15T15:46:00;2.80;99.90
27954;DHT22;15290;48.148;17.106;2022-12-15T15:48:29;2.80;99.90
27954;DHT22;15290;48.148;17.106;2022-12-15T15:50:56;2.80;99.90
27954;DHT22;15290;48.148;17.106;2022-12-15T15:53:24;2.80;99.90
27954;DHT22;15290;48.148;17.106;2022-12-15T15:55:52;2.80;99.90
27954;DHT22;15290;48.148;17.106;2022-12-15T15:58:19;2.90;99.90
27954;DHT22;15290;48.148;17.106;2022-12-15T16:00:45;2.80;99.90
27954;DHT22;15290;48.148;17.106;2022-12-15T16:03:10;2.80;99.90
27954;DHT22;15290;48.148;17.106;2022-12-15T16:05:37;2.90;99.90
27954;DHT22;15290;48.148;17.106;2022-12-15T16:08:09;2.90;99.90
27954;DHT22;15290;48.148;17.106;2022-12-15T16:10:42;2.90;99.90
27954;DHT22;15290;48.148;17.106;2022-12-15T16:13:08;2.90;99.90
27954;DHT22;15290;48.148;17.106;2022-12-15T16:15:35;2.90;99.90
27954;DHT22;15290;48.148;17.106;2022-12-15T16:18:03;2.90;99.90
27954;DHT22;15290;48.148;17.106;2022-12-15T16:20:29;2.90;99.90
27954;DHT22;15290;48.148;17.106;2022-12-15T16:23:09;2.90;99.90
27954;DHT22;15290;48.148;17.106;2022-12-15T16:25:39;2.90;99.90
27954;DHT22;15290;48.148;17.106;2022-12-15T16:28:20;2.90;99.90
27954;DHT22;15290;48.148;17.106;2022-12-15T16:30:47;3.00;99.90
27954;DHT22;15290;48.148;17.106;2022-12-15T16:33:13;2.90;99.90
27954;DHT22;15290;48.148;17.106;2022-12-15T16:35:41;2.90;99.90
27954;DHT22;15290;48.148;17.106;2022-12-15T16:38:27;2.90;99.90
27954;DHT22;15290;48.148;17.106;2022-12-15T16:40:55;2.90;99.90
27954;DHT22;15290;48.148;17.106;2022-12-15T16:43:23;2.90;99.90
27954;DHT22;15290;48.148;17.106;2022-12-15T16:45:50;2.90;99.90
27954;DHT22;15290;48.148;17.106;2022-12-15T16:48:17;2.80;99.90
27954;DHT22;15290;48.148;17.106;2022-12-15T16:50:56;2.90;99.90
27954;DHT22;15290;48.148;17.106;2022-12-15T16:53:30;2.90;99.90
27954;DHT22;15290;48.148;17.106;2022-12-15T16:56:00;2.90;99.90
27954;DHT22;15290;48.148;17.106;2022-12-15T16:58:27;2.90;99.90
27954;DHT22;15290;48.148;17.106;2022-12-15T17:00:53;2.90;99.90
27954;DHT22;15290;48.148;17.106;2022-12-15T17:03:20;2.90;99.90
27954;DHT22;15290;48.148;17.106;2022-12-15T17:05:55;2.90;99.90
27954;DHT22;15290;48.148;17.106;2022-12-15T17:08:25;2.80;99.90
27954;DHT22;15290;48.148;17.106;2022-12-15T17:10:52;2.80;99.90
27954;DHT22;15290;48.148;17.106;2022-12-15T17:13:35;2.80;99.90
27954;DHT22;15290;48.148;17.106;2022-12-15T17:16:02;2.80;99.90
27954;DHT22;15290;48.148;17.106;2022-12-15T17:18:28;2.80;99.90
27954;DHT22;15290;48.148;17.106;2022-12-15T17:21:01;2.80;99.90
27954;DHT22;15290;48.148;17.106;2022-12-15T17:23:28;2.70;99.90
27954;DHT22;15290;48.148;17.106;2022-12-15T17:25:54;2.80;99.90
27954;DHT22;15290;48.148;17.106;2022-12-15T17:28:29;2.70;99.90
27954;DHT22;15290;48.148;17.106;2022-12-15T17:30:55;2.80;99.90
27954;DHT22;15290;48.148;17.106;2022-12-15T17:33:27;2.80;99.90
27954;DHT22;15290;48.148;17.106;2022-12-15T17:35:56;2.70;99.90
27954;DHT22;15290;48.148;17.106;2022-12-15T17:38:23;2.70;99.90
27954;DHT22;15290;48.148;17.106;2022-12-15T17:40:50;2.80;99.90
27954;DHT22;15290;48.148;17.106;2022-12-15T17:43:20;2.70;99.90